createdAt,value
2019-03-21T00:01:11.779Z,3.75
2019-03-21T00:03:42.116Z,2.12
2019-03-21T00:06:13.868Z,4.00
2019-03-21T00:08:44.387Z,1.40
2019-03-21T00:11:49.291Z,4.95
2019-03-21T00:14:55.847Z,1.80
2019-03-21T00:17:32.103Z,3.72
2019-03-21T00:20:02.114Z,1.87
2019-03-21T00:22:32.088Z,5.22
2019-03-21T00:25:02.051Z,2.00
2019-03-21T00:27:32.032Z,3.52
2019-03-21T00:30:02.246Z,2.30
2019-03-21T00:32:32.203Z,6.60
2019-03-21T00:35:02.565Z,5.42
2019-03-21T00:37:32.799Z,3.95
2019-03-21T00:40:02.775Z,4.62
2019-03-21T00:42:32.744Z,1.87
2019-03-21T00:45:02.704Z,2.05
2019-03-21T00:47:32.667Z,2.20
2019-03-21T00:50:02.636Z,1.98
2019-03-21T00:52:32.621Z,3.30
2019-03-21T00:55:02.586Z,7.25
2019-03-21T00:57:32.554Z,1.47
2019-03-21T01:00:02.528Z,3.05
2019-03-21T01:02:32.775Z,3.52
2019-03-21T01:05:02.739Z,4.83
2019-03-21T01:07:32.705Z,1.55
2019-03-21T01:10:02.920Z,3.27
2019-03-21T01:12:32.900Z,7.50
2019-03-21T01:15:02.867Z,2.60
2019-03-21T01:17:32.841Z,4.10
2019-03-21T01:20:02.803Z,2.40
2019-03-21T01:22:33.012Z,11.68
2019-03-21T01:25:03.239Z,6.12
2019-03-21T01:27:33.205Z,5.40
2019-03-21T01:30:03.183Z,1.85
2019-03-21T01:32:33.384Z,10.35
2019-03-21T01:35:03.351Z,6.20
2019-03-21T01:37:33.304Z,2.45
2019-03-21T01:40:03.550Z,1.35
2019-03-21T01:42:33.515Z,5.08
2019-03-21T01:45:03.513Z,2.37
2019-03-21T01:47:33.488Z,10.53
2019-03-21T01:50:03.452Z,1.77
2019-03-21T01:52:33.424Z,8.05
2019-03-21T01:55:03.388Z,2.27
2019-03-21T01:57:33.343Z,4.72
2019-03-21T02:00:03.316Z,6.17
2019-03-21T02:02:33.280Z,7.00
2019-03-21T02:05:03.227Z,3.67
2019-03-21T02:07:33.183Z,5.20
2019-03-21T02:10:03.151Z,6.35
2019-03-21T02:12:33.113Z,2.22
2019-03-21T02:15:03.060Z,2.85
2019-03-21T02:17:32.997Z,9.18
2019-03-21T02:20:02.943Z,3.35
2019-03-21T02:22:32.899Z,8.08
2019-03-21T02:25:02.856Z,6.60
2019-03-21T02:27:32.812Z,8.58
2019-03-21T02:30:02.765Z,16.95
2019-03-21T02:32:32.703Z,7.50
2019-03-21T02:35:02.660Z,5.37
2019-03-21T02:37:32.515Z,19.50
2019-03-21T02:40:02.443Z,8.95
2019-03-21T02:42:32.359Z,5.62
2019-03-21T02:45:08.500Z,3.92
2019-03-21T02:47:33.850Z,8.63
2019-03-21T02:50:03.940Z,14.50
2019-03-21T02:52:33.871Z,9.03
2019-03-21T02:55:03.727Z,7.30
2019-03-21T02:57:33.644Z,2.58
2019-03-21T03:00:03.517Z,10.13
2019-03-21T03:02:33.440Z,5.85
2019-03-21T03:05:03.374Z,6.83
2019-03-21T03:07:33.534Z,8.23
2019-03-21T03:10:03.541Z,6.95
2019-03-21T03:12:33.454Z,4.25
2019-03-21T03:15:03.311Z,4.15
2019-03-21T03:17:33.258Z,3.62
2019-03-21T03:20:03.102Z,11.38
2019-03-21T03:22:33.015Z,6.03
2019-03-21T03:25:02.957Z,7.05
2019-03-21T03:27:33.108Z,13.03
2019-03-21T03:30:03.072Z,9.53
2019-03-21T03:32:33.037Z,3.50
2019-03-21T03:35:02.985Z,3.27
2019-03-21T03:37:32.879Z,6.08
2019-03-21T03:40:02.771Z,6.53
2019-03-21T03:42:32.670Z,8.73
2019-03-21T03:45:02.616Z,10.48
2019-03-21T03:47:32.546Z,8.63
2019-03-21T03:50:02.477Z,15.20
2019-03-21T03:52:32.400Z,10.65
2019-03-21T03:55:02.303Z,5.28
2019-03-21T03:57:32.900Z,9.88
2019-03-21T04:00:02.867Z,10.43
2019-03-21T04:02:32.792Z,2.80
2019-03-21T04:05:02.652Z,20.02
2019-03-21T04:07:32.521Z,9.88
2019-03-21T04:10:03.343Z,4.65
2019-03-21T04:12:33.668Z,7.30
2019-03-21T04:15:03.519Z,21.52
2019-03-21T04:17:33.379Z,19.92
2019-03-21T04:20:03.233Z,26.55
2019-03-21T04:22:33.160Z,13.55
2019-03-21T04:25:03.027Z,16.17
2019-03-21T04:27:32.961Z,9.40
2019-03-21T04:30:02.824Z,6.40
2019-03-21T04:32:32.688Z,13.83
2019-03-21T04:35:02.560Z,6.45
2019-03-21T04:37:32.485Z,7.22
2019-03-21T04:40:02.362Z,10.38
2019-03-21T04:42:32.215Z,7.58
2019-03-21T04:45:02.084Z,5.22
2019-03-21T04:47:32.007Z,11.43
2019-03-21T04:50:01.875Z,9.40
2019-03-21T04:52:31.731Z,8.48
2019-03-21T04:55:01.594Z,15.80
2019-03-21T04:57:31.680Z,15.83
2019-03-21T05:00:03.665Z,21.48
2019-03-21T05:02:33.111Z,23.70
2019-03-21T05:05:03.000Z,15.78
2019-03-21T05:07:32.883Z,8.33
2019-03-21T05:10:02.822Z,11.63
2019-03-21T05:12:32.683Z,20.10
2019-03-21T05:15:02.538Z,18.05
2019-03-21T05:17:32.655Z,11.35
2019-03-21T05:20:02.540Z,18.77
2019-03-21T05:22:35.024Z,13.15
2019-03-21T05:25:05.767Z,21.75
2019-03-21T05:27:35.636Z,8.43
2019-03-21T05:30:06.915Z,15.90
2019-03-21T05:32:36.775Z,16.12
2019-03-21T05:35:07.007Z,11.48
2019-03-21T05:37:36.886Z,6.90
2019-03-21T05:40:08.859Z,14.05
2019-03-21T05:42:38.722Z,16.62
2019-03-21T05:45:10.235Z,24.67
2019-03-21T05:47:40.165Z,9.20
2019-03-21T05:50:11.486Z,15.23
2019-03-21T05:52:41.341Z,17.10
2019-03-21T05:55:11.739Z,14.13
2019-03-21T05:57:41.645Z,4.95
2019-03-21T06:00:15.869Z,32.50
2019-03-21T06:02:45.807Z,10.58
2019-03-21T06:05:15.667Z,19.73
2019-03-21T06:07:53.583Z,9.30
2019-03-21T06:10:23.480Z,13.08
2019-03-21T06:12:53.334Z,19.62
2019-03-21T06:15:26.202Z,11.93
2019-03-21T06:18:46.123Z,9.80
2019-03-21T06:21:23.895Z,10.55
2019-03-21T06:24:18.822Z,5.42
2019-03-21T06:27:28.328Z,13.60
2019-03-21T06:29:58.179Z,8.00
2019-03-21T06:32:29.103Z,10.72
2019-03-21T06:34:58.983Z,6.75
2019-03-21T06:37:29.178Z,18.30
2019-03-21T06:39:59.071Z,11.28
2019-03-21T06:42:29.094Z,9.25
2019-03-21T06:44:59.071Z,10.55
2019-03-21T06:47:28.914Z,8.00
2019-03-21T06:49:58.795Z,7.67
2019-03-21T06:52:28.739Z,9.83
2019-03-21T06:54:59.915Z,10.05
2019-03-21T06:57:29.971Z,13.75
2019-03-21T06:59:59.839Z,17.02
2019-03-21T07:02:29.682Z,25.62
2019-03-21T07:04:59.808Z,14.30
2019-03-21T07:07:29.739Z,15.80
2019-03-21T07:09:59.592Z,14.58
2019-03-21T07:12:29.526Z,26.35
2019-03-21T07:14:59.435Z,19.05
2019-03-21T07:17:29.311Z,17.40
2019-03-21T07:19:59.175Z,16.37
2019-03-21T07:22:29.029Z,14.47
2019-03-21T07:24:58.868Z,15.30
2019-03-21T07:27:28.739Z,12.70
2019-03-21T07:29:58.586Z,27.13
2019-03-21T07:32:33.363Z,13.05
2019-03-21T07:35:00.107Z,11.80
2019-03-21T07:37:29.950Z,18.15
2019-03-21T07:39:59.807Z,11.73
2019-03-21T07:42:29.655Z,17.10
2019-03-21T07:44:59.503Z,16.87
2019-03-21T07:47:29.355Z,7.97
2019-03-21T07:49:59.201Z,6.78
2019-03-21T07:52:29.055Z,21.68
2019-03-21T07:54:58.944Z,17.12
2019-03-21T07:57:28.794Z,6.45
2019-03-21T07:59:58.724Z,10.13
2019-03-21T08:02:28.571Z,8.38
2019-03-21T08:04:58.498Z,22.15
2019-03-21T08:07:28.345Z,13.15
2019-03-21T08:09:58.223Z,14.63
2019-03-21T08:12:28.066Z,5.37
2019-03-21T08:14:57.925Z,8.28
2019-03-21T08:17:27.768Z,13.20
2019-03-21T08:19:57.619Z,7.47
2019-03-21T08:22:27.458Z,6.28
2019-03-21T08:24:57.306Z,6.87
2019-03-21T08:27:27.151Z,19.05
2019-03-21T08:29:57.022Z,16.77
2019-03-21T08:32:26.887Z,9.63
2019-03-21T08:34:56.726Z,11.70
2019-03-21T08:37:26.612Z,4.85
2019-03-21T08:39:56.450Z,9.03
2019-03-21T08:42:26.311Z,10.10
2019-03-21T08:44:56.171Z,10.48
2019-03-21T08:47:26.303Z,10.90
2019-03-21T08:49:56.301Z,5.15
2019-03-21T08:52:26.154Z,4.90
2019-03-21T08:54:56.014Z,3.35
2019-03-21T08:57:25.890Z,6.97
2019-03-21T08:59:55.742Z,11.18
2019-03-21T09:02:25.603Z,8.48
2019-03-21T09:04:55.535Z,5.03
2019-03-21T09:10:08.108Z,8.45
2019-03-21T09:12:38.087Z,2.62
2019-03-21T09:15:08.806Z,4.37
2019-03-21T09:17:38.974Z,8.33
2019-03-21T09:20:09.577Z,1.92
2019-03-21T09:22:39.518Z,14.68
2019-03-21T09:25:09.590Z,9.08
2019-03-21T09:27:39.533Z,4.25
2019-03-21T09:30:10.214Z,3.12
2019-03-21T09:32:40.110Z,9.93
2019-03-21T09:35:12.500Z,7.15
2019-03-21T09:37:42.050Z,5.12
2019-03-21T09:40:12.267Z,4.30
2019-03-21T09:42:42.166Z,5.00
2019-03-21T09:45:12.213Z,2.58
2019-03-21T09:47:42.115Z,6.72
2019-03-21T09:50:13.529Z,3.37
2019-03-21T09:52:43.401Z,9.75
2019-03-21T09:55:13.454Z,3.05
2019-03-21T09:57:43.317Z,6.58
2019-03-21T10:00:14.866Z,8.60
2019-03-21T10:02:44.732Z,1.37
2019-03-21T10:05:14.591Z,4.78
2019-03-21T10:07:44.452Z,6.85
2019-03-21T10:10:17.396Z,5.53
2019-03-21T10:12:47.343Z,1.45
2019-03-21T10:15:17.219Z,3.12
2019-03-21T10:17:47.095Z,10.20
2019-03-21T10:20:16.975Z,3.55
2019-03-21T10:22:46.847Z,2.87
2019-03-21T10:25:16.701Z,2.22
2019-03-21T10:27:46.648Z,3.55
2019-03-21T10:30:29.892Z,4.97
2019-03-21T10:32:59.794Z,8.30
2019-03-21T10:35:29.664Z,6.83
2019-03-21T10:37:59.607Z,2.75
2019-03-21T10:40:29.477Z,1.77
2019-03-21T10:42:59.433Z,4.20
2019-03-21T10:45:29.349Z,3.15
2019-03-21T10:47:59.294Z,3.15
2019-03-21T10:50:31.338Z,6.10
2019-03-21T10:53:01.211Z,2.95
2019-03-21T10:55:31.114Z,3.02
2019-03-21T10:58:00.959Z,2.50
2019-03-21T11:00:30.827Z,3.60
2019-03-21T11:03:00.722Z,2.35
2019-03-21T11:05:31.521Z,4.95
2019-03-21T11:08:01.406Z,13.48
2019-03-21T11:10:31.350Z,1.45
2019-03-21T11:13:01.734Z,2.17
2019-03-21T11:15:31.687Z,4.03
2019-03-21T11:18:02.031Z,2.72
2019-03-21T11:20:36.452Z,6.75
2019-03-21T11:23:07.946Z,1.55
2019-03-21T11:25:38.155Z,2.42
2019-03-21T11:28:08.959Z,1.70
2019-03-21T11:30:45.634Z,2.35
2019-03-21T11:33:15.566Z,1.82
2019-03-21T11:35:45.446Z,3.05
2019-03-21T11:38:15.559Z,3.10
2019-03-21T11:40:48.144Z,2.10
2019-03-21T11:43:19.192Z,4.20
2019-03-21T11:45:49.123Z,3.08
2019-03-21T11:48:19.074Z,4.55
2019-03-21T11:50:48.956Z,2.80
2019-03-21T11:53:18.938Z,2.50
2019-03-21T11:55:48.983Z,4.45
2019-03-21T11:58:18.918Z,5.83
2019-03-21T12:00:48.784Z,5.08
2019-03-21T12:03:18.848Z,2.35
2019-03-21T12:05:48.718Z,5.70
2019-03-21T12:08:18.621Z,3.10
2019-03-21T12:10:48.470Z,5.67
2019-03-21T12:13:18.324Z,8.13
2019-03-21T12:15:48.255Z,4.28
2019-03-21T12:18:18.119Z,2.85
2019-03-21T12:20:47.976Z,3.00
2019-03-21T12:23:17.838Z,3.65
2019-03-21T12:25:47.694Z,4.30
2019-03-21T12:28:17.563Z,2.55
2019-03-21T12:30:47.503Z,6.03
2019-03-21T12:33:17.381Z,8.28
2019-03-21T12:35:47.257Z,8.13
2019-03-21T12:38:17.126Z,4.37
2019-03-21T12:40:47.014Z,3.50
2019-03-21T12:43:16.950Z,3.72
2019-03-21T12:45:46.826Z,2.12
2019-03-21T12:48:16.760Z,4.90
2019-03-21T12:50:46.638Z,4.25
2019-03-21T12:53:16.564Z,3.77
2019-03-21T12:55:46.428Z,4.10
2019-03-21T12:58:16.359Z,3.80
2019-03-21T13:00:46.601Z,2.95
2019-03-21T13:03:16.475Z,3.30
2019-03-21T13:05:46.714Z,3.67
2019-03-21T13:08:16.595Z,6.53
2019-03-21T13:10:46.454Z,4.95
2019-03-21T13:13:16.310Z,3.50
2019-03-21T13:15:46.179Z,4.55
2019-03-21T13:18:16.053Z,2.87
2019-03-21T13:20:45.991Z,4.20
2019-03-21T13:23:15.882Z,3.52
2019-03-21T13:25:45.742Z,6.47
2019-03-21T13:28:15.672Z,2.45
2019-03-21T13:30:45.606Z,4.65
2019-03-21T13:33:15.463Z,3.65
2019-03-21T13:35:45.339Z,3.35
2019-03-21T13:38:15.203Z,5.40
2019-03-21T13:40:45.069Z,3.95
2019-03-21T13:43:14.952Z,8.88
2019-03-21T13:45:44.890Z,5.50
2019-03-21T13:48:14.746Z,5.70
2019-03-21T13:50:44.619Z,2.62
2019-03-21T13:53:18.947Z,3.42
2019-03-21T13:55:46.072Z,3.05
2019-03-21T13:58:15.943Z,3.17
2019-03-21T14:00:45.795Z,4.83
2019-03-21T14:03:24.625Z,3.58
2019-03-21T14:05:47.239Z,6.35
2019-03-21T14:08:17.133Z,3.77
2019-03-21T14:10:47.247Z,2.80
2019-03-21T14:13:17.167Z,5.85
2019-03-21T14:15:47.110Z,2.98
2019-03-21T14:18:16.986Z,3.75
2019-03-21T14:20:46.854Z,7.40
2019-03-21T14:23:17.581Z,3.37
2019-03-21T14:25:47.550Z,4.50
2019-03-21T14:28:17.643Z,3.92
2019-03-21T14:30:47.502Z,8.23
2019-03-21T14:33:17.384Z,5.12
2019-03-21T14:35:47.257Z,3.52
2019-03-21T14:38:25.762Z,4.17
2019-03-21T14:40:48.678Z,4.70
2019-03-21T14:43:18.538Z,4.00
2019-03-21T14:45:48.404Z,2.08
2019-03-21T14:48:18.340Z,5.33
2019-03-21T14:50:48.200Z,2.67
2019-03-21T14:53:28.234Z,1.75
2019-03-21T14:55:49.635Z,3.08
2019-03-21T14:58:19.488Z,3.30
2019-03-21T15:00:49.343Z,3.90
2019-03-21T15:03:19.198Z,2.98
2019-03-21T15:05:49.057Z,3.00
2019-03-21T15:08:18.927Z,2.40
2019-03-21T15:10:48.800Z,2.55
2019-03-21T15:13:18.651Z,4.60
2019-03-21T15:15:48.582Z,5.90
2019-03-21T15:18:18.519Z,3.55
2019-03-21T15:20:48.380Z,2.40
2019-03-21T15:23:18.234Z,3.52
2019-03-21T15:25:48.141Z,5.03
2019-03-21T15:28:18.115Z,2.85
2019-03-21T15:30:47.975Z,4.47
2019-03-21T15:33:17.881Z,3.87
2019-03-21T15:35:47.764Z,7.08
2019-03-21T15:38:17.620Z,6.75
2019-03-21T15:40:47.528Z,9.85
2019-03-21T15:43:17.412Z,2.92
2019-03-21T15:45:47.306Z,6.20
2019-03-21T15:48:17.159Z,8.25
2019-03-21T15:50:47.094Z,2.12
2019-03-21T15:53:16.953Z,8.33
2019-03-21T15:55:46.897Z,9.58
2019-03-21T15:58:16.751Z,2.17
2019-03-21T16:00:46.690Z,2.85
2019-03-21T16:03:16.554Z,3.65
2019-03-21T16:05:46.414Z,4.58
2019-03-21T16:08:16.286Z,4.55
2019-03-21T16:10:46.146Z,7.58
2019-03-21T16:13:16.024Z,5.78
2019-03-21T16:15:45.887Z,3.47
2019-03-21T16:18:15.754Z,4.83
2019-03-21T16:20:45.618Z,2.27
2019-03-21T16:23:15.470Z,3.55
2019-03-21T16:25:45.333Z,1.65
2019-03-21T16:28:15.199Z,3.52
2019-03-21T16:30:45.198Z,6.25
2019-03-21T16:33:15.054Z,3.98
2019-03-21T16:35:44.919Z,2.15
2019-03-21T16:38:14.813Z,4.65
2019-03-21T16:40:44.742Z,3.83
2019-03-21T16:43:14.613Z,4.28
2019-03-21T16:45:44.531Z,2.20
2019-03-21T16:48:14.426Z,5.33
2019-03-21T16:50:44.321Z,7.60
2019-03-21T16:53:14.189Z,2.83
2019-03-21T16:55:44.054Z,4.10
2019-03-21T16:58:13.998Z,3.05
2019-03-21T17:00:43.902Z,3.50
2019-03-21T17:03:13.995Z,6.90
2019-03-21T17:05:43.879Z,8.83
2019-03-21T17:08:14.198Z,7.75
2019-03-21T17:10:44.170Z,5.60
2019-03-21T17:13:14.058Z,9.48
2019-03-21T17:15:43.941Z,12.95
2019-03-21T17:18:13.796Z,5.20
2019-03-21T17:20:43.741Z,7.72
2019-03-21T17:23:13.677Z,8.00
2019-03-21T17:25:43.827Z,4.25
2019-03-21T17:28:13.815Z,7.72
2019-03-21T17:30:43.731Z,4.85
2019-03-21T17:33:13.589Z,10.70
2019-03-21T17:35:43.539Z,5.60
2019-03-21T17:38:13.609Z,4.92
2019-03-21T17:40:43.462Z,7.87
2019-03-21T17:43:13.378Z,2.65
2019-03-21T17:45:43.350Z,7.17
2019-03-21T17:48:13.235Z,10.28
2019-03-21T17:50:43.090Z,8.10
2019-03-21T17:53:12.986Z,5.67
2019-03-21T17:55:42.941Z,2.83
2019-03-21T17:58:12.981Z,6.95
2019-03-21T18:00:42.870Z,3.27
2019-03-21T18:03:13.931Z,3.58
2019-03-21T18:05:43.785Z,3.35
2019-03-21T18:08:13.653Z,9.45
2019-03-21T18:10:43.643Z,6.42
2019-03-21T18:13:13.514Z,6.53
2019-03-21T18:15:43.377Z,5.10
2019-03-21T18:18:13.250Z,5.80
2019-03-21T18:20:43.383Z,4.78
2019-03-21T18:23:13.246Z,12.63
2019-03-21T18:25:43.178Z,5.75
2019-03-21T18:28:13.048Z,8.58
2019-03-21T18:30:42.934Z,3.12
2019-03-21T18:33:12.893Z,12.90
2019-03-21T18:35:42.752Z,7.15
2019-03-21T18:38:12.690Z,4.67
2019-03-21T18:40:42.559Z,9.03
2019-03-21T18:43:12.554Z,4.78
2019-03-21T18:45:42.433Z,2.10
2019-03-21T18:48:12.303Z,4.35
2019-03-21T18:50:42.239Z,3.20
2019-03-21T18:53:12.161Z,2.92
2019-03-21T18:55:42.102Z,3.12
2019-03-21T18:58:12.014Z,11.57
2019-03-21T19:00:41.948Z,9.28
2019-03-21T19:03:11.815Z,2.75
2019-03-21T19:05:41.695Z,11.12
2019-03-21T19:08:11.635Z,16.80
2019-03-21T19:10:41.497Z,6.50
2019-03-21T19:13:11.359Z,9.33
2019-03-21T19:15:41.211Z,2.45
2019-03-21T19:18:11.066Z,5.92
2019-03-21T19:20:40.926Z,3.58
2019-03-21T19:23:10.786Z,2.62
2019-03-21T19:25:40.642Z,2.47
2019-03-21T19:28:10.519Z,2.90
2019-03-21T19:30:40.403Z,0.82
2019-03-21T19:33:10.260Z,3.15
2019-03-21T19:35:40.124Z,1.75
2019-03-21T19:38:09.983Z,3.15
2019-03-21T19:40:39.911Z,1.17
2019-03-21T19:43:09.772Z,2.55
2019-03-21T19:45:39.627Z,0.90
2019-03-21T19:48:09.483Z,3.20
2019-03-21T19:50:39.379Z,1.92
2019-03-21T19:53:09.256Z,1.17
2019-03-21T19:55:39.214Z,1.47
2019-03-21T19:58:09.170Z,0.62
2019-03-21T20:00:39.046Z,0.60
2019-03-21T20:03:08.927Z,0.70
2019-03-21T20:05:38.795Z,0.70
2019-03-21T20:08:08.650Z,1.05
2019-03-21T20:10:38.971Z,1.55
2019-03-21T20:13:08.913Z,1.45
2019-03-21T20:15:38.845Z,1.07
2019-03-21T20:18:08.767Z,1.90
2019-03-21T20:20:38.672Z,1.60
2019-03-21T20:23:08.535Z,1.20
2019-03-21T20:25:43.101Z,0.98
2019-03-21T20:28:09.955Z,1.82
2019-03-21T20:30:40.103Z,0.90
2019-03-21T20:33:09.979Z,1.27
2019-03-21T20:35:39.906Z,0.62
2019-03-21T20:38:09.762Z,7.35
2019-03-21T20:40:39.620Z,0.70
2019-03-21T20:43:09.546Z,2.08
2019-03-21T20:45:39.394Z,2.08
2019-03-21T20:48:09.254Z,2.65
2019-03-21T20:50:39.127Z,1.00
2019-03-21T20:53:09.056Z,3.45
2019-03-21T20:55:38.914Z,4.10
2019-03-21T20:58:08.851Z,1.07
2019-03-21T21:00:38.714Z,1.17
2019-03-21T21:03:08.594Z,0.80
2019-03-21T21:05:38.463Z,2.15
2019-03-21T21:08:08.337Z,1.98
2019-03-21T21:10:38.730Z,3.62
2019-03-21T21:13:08.613Z,2.50
2019-03-21T21:15:38.472Z,1.80
2019-03-21T21:18:08.344Z,1.40
2019-03-21T21:20:38.266Z,1.82
2019-03-21T21:23:08.141Z,1.70
2019-03-21T21:25:38.098Z,2.62
2019-03-21T21:28:08.060Z,1.00
2019-03-21T21:30:38.029Z,0.70
2019-03-21T21:33:07.994Z,2.75
2019-03-21T21:35:37.872Z,2.27
2019-03-21T21:38:07.739Z,4.20
2019-03-21T21:40:38.126Z,1.30
2019-03-21T21:43:08.015Z,0.90
2019-03-21T21:45:37.893Z,0.70
2019-03-21T21:48:07.747Z,1.35
2019-03-21T21:50:37.622Z,1.80
2019-03-21T21:53:07.487Z,1.07
2019-03-21T21:55:37.643Z,1.30
2019-03-21T21:58:07.512Z,0.80
2019-03-21T22:00:37.415Z,1.10
2019-03-21T22:03:07.306Z,3.65
2019-03-21T22:05:37.166Z,0.82
2019-03-21T22:08:07.324Z,1.62
2019-03-21T22:10:37.514Z,1.17
2019-03-21T22:13:07.564Z,1.07
2019-03-21T22:15:37.563Z,1.15
2019-03-21T22:18:07.806Z,1.67
2019-03-21T22:20:37.995Z,0.85
2019-03-21T22:23:07.864Z,0.75
2019-03-21T22:25:37.765Z,0.70
2019-03-21T22:28:10.105Z,1.25
2019-03-21T22:30:39.262Z,0.80
2019-03-21T22:33:09.296Z,0.75
2019-03-21T22:35:39.154Z,4.30
2019-03-21T22:38:09.036Z,1.10
2019-03-21T22:40:38.931Z,0.80
2019-03-21T22:43:08.970Z,0.80
2019-03-21T22:45:39.254Z,1.15
2019-03-21T22:48:09.202Z,0.70
2019-03-21T22:50:39.141Z,3.95
2019-03-21T22:53:09.011Z,1.30
2019-03-21T22:55:38.879Z,0.93
2019-03-21T22:58:08.831Z,2.12
2019-03-21T23:00:43.384Z,2.00
2019-03-21T23:03:13.327Z,1.32
2019-03-21T23:05:43.199Z,1.50
2019-03-21T23:08:13.128Z,0.80
2019-03-21T23:10:44.987Z,0.70
2019-03-21T23:13:14.578Z,1.20
2019-03-21T23:15:44.483Z,1.10
2019-03-21T23:18:14.328Z,0.70
2019-03-21T23:20:44.189Z,0.90
2019-03-21T23:23:14.127Z,4.53
2019-03-21T23:25:43.998Z,1.00
2019-03-21T23:28:13.868Z,7.55
2019-03-21T23:30:43.739Z,3.80
2019-03-21T23:33:13.603Z,1.40
2019-03-21T23:35:43.474Z,4.12
2019-03-21T23:38:13.338Z,0.80
2019-03-21T23:40:43.208Z,1.95
2019-03-21T23:43:13.085Z,1.40
2019-03-21T23:45:43.199Z,4.00
2019-03-21T23:48:13.063Z,2.20
2019-03-21T23:50:43.537Z,1.15
2019-03-21T23:53:13.404Z,2.98
2019-03-21T23:55:43.338Z,0.70
2019-03-21T23:58:13.402Z,1.75
